sensor_id;sensor_type;location;lat;lon;timestamp;P1;durP1;ratioP1;P2;durP2;ratioP2
42754;SDS011;28407;51.830;5.684;2023-06-14T00:00:52;2.05;;;1.30;;
42754;SDS011;28407;51.830;5.684;2023-06-14T00:02:53;2.50;;;1.17;;
42754;SDS011;28407;51.830;5.684;2023-06-14T00:04:55;3.45;;;1.13;;
42754;SDS011;28407;51.830;5.684;2023-06-14T00:06:56;3.92;;;1.48;;
42754;SDS011;28407;51.830;5.684;2023-06-14T00:08:57;2.90;;;2.00;;
42754;SDS011;28407;51.830;5.684;2023-06-14T00:10:58;2.95;;;1.40;;
42754;SDS011;28407;51.830;5.684;2023-06-14T00:12:59;2.75;;;1.30;;
42754;SDS011;28407;51.830;5.684;2023-06-14T00:15:00;3.63;;;1.27;;
42754;SDS011;28407;51.830;5.684;2023-06-14T00:17:01;1.55;;;1.05;;
42754;SDS011;28407;51.830;5.684;2023-06-14T00:19:02;2.85;;;1.48;;
42754;SDS011;28407;51.830;5.684;2023-06-14T00:21:04;2.97;;;1.13;;
42754;SDS011;28407;51.830;5.684;2023-06-14T00:23:05;4.60;;;2.30;;
42754;SDS011;28407;51.830;5.684;2023-06-14T00:25:06;2.20;;;0.98;;
42754;SDS011;28407;51.830;5.684;2023-06-14T00:27:07;3.67;;;1.63;;
42754;SDS011;28407;51.830;5.684;2023-06-14T00:29:07;2.83;;;1.52;;
42754;SDS011;28407;51.830;5.684;2023-06-14T00:31:08;2.53;;;1.30;;
42754;SDS011;28407;51.830;5.684;2023-06-14T00:33:09;2.97;;;1.10;;
42754;SDS011;28407;51.830;5.684;2023-06-14T00:35:10;5.32;;;1.10;;
42754;SDS011;28407;51.830;5.684;2023-06-14T00:37:11;1.80;;;0.98;;
42754;SDS011;28407;51.830;5.684;2023-06-14T00:39:12;2.70;;;1.23;;
42754;SDS011;28407;51.830;5.684;2023-06-14T00:41:12;2.25;;;1.17;;
42754;SDS011;28407;51.830;5.684;2023-06-14T00:43:16;2.38;;;1.25;;
42754;SDS011;28407;51.830;5.684;2023-06-14T00:45:17;3.92;;;2.42;;
42754;SDS011;28407;51.830;5.684;2023-06-14T00:47:18;2.90;;;1.45;;
42754;SDS011;28407;51.830;5.684;2023-06-14T00:49:19;2.45;;;1.35;;
42754;SDS011;28407;51.830;5.684;2023-06-14T00:51:20;2.78;;;1.30;;
42754;SDS011;28407;51.830;5.684;2023-06-14T00:53:21;2.40;;;1.23;;
42754;SDS011;28407;51.830;5.684;2023-06-14T00:55:23;2.90;;;1.17;;
42754;SDS011;28407;51.830;5.684;2023-06-14T00:57:23;1.98;;;1.20;;
42754;SDS011;28407;51.830;5.684;2023-06-14T00:59:24;3.05;;;1.48;;
42754;SDS011;28407;51.830;5.684;2023-06-14T01:01:25;3.88;;;1.13;;
42754;SDS011;28407;51.830;5.684;2023-06-14T01:03:26;2.47;;;1.80;;
42754;SDS011;28407;51.830;5.684;2023-06-14T01:14:23;2.75;;;1.60;;
42754;SDS011;28407;51.830;5.684;2023-06-14T01:16:26;3.25;;;1.10;;
42754;SDS011;28407;51.830;5.684;2023-06-14T01:18:28;2.28;;;1.10;;
42754;SDS011;28407;51.830;5.684;2023-06-14T01:20:30;2.78;;;1.58;;
42754;SDS011;28407;51.830;5.684;2023-06-14T01:22:32;5.40;;;2.17;;
42754;SDS011;28407;51.830;5.684;2023-06-14T01:24:33;2.67;;;0.98;;
42754;SDS011;28407;51.830;5.684;2023-06-14T01:26:35;3.07;;;1.33;;
42754;SDS011;28407;51.830;5.684;2023-06-14T01:28:37;2.70;;;1.27;;
42754;SDS011;28407;51.830;5.684;2023-06-14T01:30:39;2.63;;;1.55;;
42754;SDS011;28407;51.830;5.684;2023-06-14T01:32:45;4.22;;;1.98;;
42754;SDS011;28407;51.830;5.684;2023-06-14T01:34:46;2.13;;;1.00;;
42754;SDS011;28407;51.830;5.684;2023-06-14T01:36:47;3.38;;;1.40;;
42754;SDS011;28407;51.830;5.684;2023-06-14T01:40:54;2.38;;;1.27;;
42754;SDS011;28407;51.830;5.684;2023-06-14T01:42:59;2.67;;;1.33;;
42754;SDS011;28407;51.830;5.684;2023-06-14T01:45:01;2.83;;;1.05;;
42754;SDS011;28407;51.830;5.684;2023-06-14T01:47:03;1.75;;;1.00;;
42754;SDS011;28407;51.830;5.684;2023-06-14T01:49:04;2.17;;;1.20;;
42754;SDS011;28407;51.830;5.684;2023-06-14T01:51:05;2.40;;;1.33;;
42754;SDS011;28407;51.830;5.684;2023-06-14T01:53:07;1.90;;;0.95;;
42754;SDS011;28407;51.830;5.684;2023-06-14T01:55:10;4.07;;;1.38;;
42754;SDS011;28407;51.830;5.684;2023-06-14T01:57:12;2.33;;;1.05;;
42754;SDS011;28407;51.830;5.684;2023-06-14T01:59:13;2.45;;;1.17;;
42754;SDS011;28407;51.830;5.684;2023-06-14T02:01:14;1.88;;;1.00;;
42754;SDS011;28407;51.830;5.684;2023-06-14T02:03:16;3.13;;;1.35;;
42754;SDS011;28407;51.830;5.684;2023-06-14T02:05:19;2.28;;;1.30;;
42754;SDS011;28407;51.830;5.684;2023-06-14T02:07:22;2.08;;;1.08;;
42754;SDS011;28407;51.830;5.684;2023-06-14T02:09:23;2.85;;;1.00;;
42754;SDS011;28407;51.830;5.684;2023-06-14T02:11:24;2.75;;;0.93;;
42754;SDS011;28407;51.830;5.684;2023-06-14T02:13:25;1.48;;;0.93;;
42754;SDS011;28407;51.830;5.684;2023-06-14T02:15:26;2.20;;;1.25;;
42754;SDS011;28407;51.830;5.684;2023-06-14T02:17:34;3.50;;;1.20;;
42754;SDS011;28407;51.830;5.684;2023-06-14T02:19:39;1.70;;;1.10;;
42754;SDS011;28407;51.830;5.684;2023-06-14T02:21:40;2.60;;;1.20;;
42754;SDS011;28407;51.830;5.684;2023-06-14T02:23:41;4.50;;;1.33;;
42754;SDS011;28407;51.830;5.684;2023-06-14T02:25:42;2.35;;;1.33;;
42754;SDS011;28407;51.830;5.684;2023-06-14T02:27:44;1.92;;;1.00;;
42754;SDS011;28407;51.830;5.684;2023-06-14T02:29:45;2.00;;;1.08;;
42754;SDS011;28407;51.830;5.684;2023-06-14T02:31:46;2.42;;;1.30;;
42754;SDS011;28407;51.830;5.684;2023-06-14T02:33:48;2.30;;;1.38;;
42754;SDS011;28407;51.830;5.684;2023-06-14T02:35:49;5.05;;;1.30;;
42754;SDS011;28407;51.830;5.684;2023-06-14T02:37:50;3.03;;;1.25;;
42754;SDS011;28407;51.830;5.684;2023-06-14T02:39:52;3.63;;;1.20;;
42754;SDS011;28407;51.830;5.684;2023-06-14T02:41:53;4.82;;;1.05;;
42754;SDS011;28407;51.830;5.684;2023-06-14T02:43:54;3.40;;;1.00;;
42754;SDS011;28407;51.830;5.684;2023-06-14T02:45:56;2.65;;;1.15;;
42754;SDS011;28407;51.830;5.684;2023-06-14T02:47:56;1.83;;;0.85;;
42754;SDS011;28407;51.830;5.684;2023-06-14T02:49:57;1.95;;;1.10;;
42754;SDS011;28407;51.830;5.684;2023-06-14T02:51:58;2.10;;;1.15;;
42754;SDS011;28407;51.830;5.684;2023-06-14T02:53:58;2.75;;;1.20;;
42754;SDS011;28407;51.830;5.684;2023-06-14T02:55:59;2.95;;;1.30;;
42754;SDS011;28407;51.830;5.684;2023-06-14T02:58:01;2.25;;;1.33;;
42754;SDS011;28407;51.830;5.684;2023-06-14T03:00:02;2.10;;;0.90;;
42754;SDS011;28407;51.830;5.684;2023-06-14T03:02:05;3.15;;;1.20;;
42754;SDS011;28407;51.830;5.684;2023-06-14T03:04:08;1.75;;;1.13;;
42754;SDS011;28407;51.830;5.684;2023-06-14T03:06:11;2.03;;;1.10;;
42754;SDS011;28407;51.830;5.684;2023-06-14T03:08:13;2.60;;;1.10;;
42754;SDS011;28407;51.830;5.684;2023-06-14T03:10:21;2.13;;;1.10;;
42754;SDS011;28407;51.830;5.684;2023-06-14T03:12:23;1.60;;;0.93;;
42754;SDS011;28407;51.830;5.684;2023-06-14T03:14:24;2.38;;;1.15;;
42754;SDS011;28407;51.830;5.684;2023-06-14T03:16:25;2.00;;;1.05;;
42754;SDS011;28407;51.830;5.684;2023-06-14T03:18:29;4.32;;;1.42;;
42754;SDS011;28407;51.830;5.684;2023-06-14T03:22:33;3.35;;;1.00;;
42754;SDS011;28407;51.830;5.684;2023-06-14T03:24:34;2.00;;;1.10;;
42754;SDS011;28407;51.830;5.684;2023-06-14T03:26:42;2.20;;;1.00;;
42754;SDS011;28407;51.830;5.684;2023-06-14T03:28:43;2.97;;;1.30;;
42754;SDS011;28407;51.830;5.684;2023-06-14T03:30:48;2.65;;;1.10;;
42754;SDS011;28407;51.830;5.684;2023-06-14T03:32:49;1.67;;;1.08;;
42754;SDS011;28407;51.830;5.684;2023-06-14T03:34:53;2.85;;;1.10;;
42754;SDS011;28407;51.830;5.684;2023-06-14T03:36:57;1.85;;;1.00;;
42754;SDS011;28407;51.830;5.684;2023-06-14T03:38:58;4.43;;;1.20;;
42754;SDS011;28407;51.830;5.684;2023-06-14T03:40:59;2.47;;;1.15;;
42754;SDS011;28407;51.830;5.684;2023-06-14T03:42:59;3.45;;;1.45;;
42754;SDS011;28407;51.830;5.684;2023-06-14T03:45:00;1.75;;;0.90;;
42754;SDS011;28407;51.830;5.684;2023-06-14T03:47:01;2.00;;;1.17;;
42754;SDS011;28407;51.830;5.684;2023-06-14T03:49:03;1.83;;;1.02;;
42754;SDS011;28407;51.830;5.684;2023-06-14T03:51:04;2.92;;;1.17;;
42754;SDS011;28407;51.830;5.684;2023-06-14T03:53:06;1.90;;;1.10;;
42754;SDS011;28407;51.830;5.684;2023-06-14T03:55:07;2.92;;;1.42;;
42754;SDS011;28407;51.830;5.684;2023-06-14T03:57:08;3.50;;;1.15;;
42754;SDS011;28407;51.830;5.684;2023-06-14T03:59:09;1.85;;;1.00;;
42754;SDS011;28407;51.830;5.684;2023-06-14T04:01:10;4.03;;;1.15;;
42754;SDS011;28407;51.830;5.684;2023-06-14T04:03:12;2.38;;;0.95;;
42754;SDS011;28407;51.830;5.684;2023-06-14T04:05:13;3.72;;;1.55;;
42754;SDS011;28407;51.830;5.684;2023-06-14T04:07:20;2.60;;;1.40;;
42754;SDS011;28407;51.830;5.684;2023-06-14T04:09:21;2.17;;;1.20;;
42754;SDS011;28407;51.830;5.684;2023-06-14T04:11:21;2.72;;;1.27;;
42754;SDS011;28407;51.830;5.684;2023-06-14T04:13:22;1.67;;;0.90;;
42754;SDS011;28407;51.830;5.684;2023-06-14T04:15:23;2.95;;;1.35;;
42754;SDS011;28407;51.830;5.684;2023-06-14T04:17:26;2.10;;;0.93;;
42754;SDS011;28407;51.830;5.684;2023-06-14T04:19:27;2.47;;;0.90;;
42754;SDS011;28407;51.830;5.684;2023-06-14T04:21:28;2.72;;;1.10;;
42754;SDS011;28407;51.830;5.684;2023-06-14T04:23:30;2.25;;;1.40;;
42754;SDS011;28407;51.830;5.684;2023-06-14T04:25:30;2.47;;;1.10;;
42754;SDS011;28407;51.830;5.684;2023-06-14T04:27:32;1.67;;;1.00;;
42754;SDS011;28407;51.830;5.684;2023-06-14T04:29:36;3.22;;;1.20;;
42754;SDS011;28407;51.830;5.684;2023-06-14T04:31:41;4.13;;;1.42;;
42754;SDS011;28407;51.830;5.684;2023-06-14T04:33:44;2.70;;;1.00;;
42754;SDS011;28407;51.830;5.684;2023-06-14T04:35:50;3.03;;;1.60;;
42754;SDS011;28407;51.830;5.684;2023-06-14T04:37:54;2.10;;;1.05;;
42754;SDS011;28407;51.830;5.684;2023-06-14T04:39:56;4.20;;;1.67;;
42754;SDS011;28407;51.830;5.684;2023-06-14T04:41:57;1.95;;;1.08;;
42754;SDS011;28407;51.830;5.684;2023-06-14T04:44:01;3.80;;;1.50;;
42754;SDS011;28407;51.830;5.684;2023-06-14T04:46:04;4.50;;;1.40;;
42754;SDS011;28407;51.830;5.684;2023-06-14T04:48:06;3.95;;;1.50;;
42754;SDS011;28407;51.830;5.684;2023-06-14T04:50:07;2.08;;;1.17;;
42754;SDS011;28407;51.830;5.684;2023-06-14T04:52:08;2.03;;;1.05;;
42754;SDS011;28407;51.830;5.684;2023-06-14T04:54:15;2.17;;;1.20;;
42754;SDS011;28407;51.830;5.684;2023-06-14T04:56:17;2.05;;;1.10;;
42754;SDS011;28407;51.830;5.684;2023-06-14T04:58:17;2.10;;;1.35;;
42754;SDS011;28407;51.830;5.684;2023-06-14T05:00:19;3.03;;;1.58;;
42754;SDS011;28407;51.830;5.684;2023-06-14T05:02:21;2.42;;;1.02;;
42754;SDS011;28407;51.830;5.684;2023-06-14T05:04:23;2.15;;;1.20;;
42754;SDS011;28407;51.830;5.684;2023-06-14T05:06:26;3.17;;;1.80;;
42754;SDS011;28407;51.830;5.684;2023-06-14T05:08:27;2.95;;;1.60;;
42754;SDS011;28407;51.830;5.684;2023-06-14T05:10:28;2.42;;;1.27;;
42754;SDS011;28407;51.830;5.684;2023-06-14T05:12:29;12.82;;;3.28;;
42754;SDS011;28407;51.830;5.684;2023-06-14T05:14:30;2.90;;;1.55;;
42754;SDS011;28407;51.830;5.684;2023-06-14T05:16:31;3.80;;;1.38;;
42754;SDS011;28407;51.830;5.684;2023-06-14T05:18:32;1.65;;;1.17;;
42754;SDS011;28407;51.830;5.684;2023-06-14T05:20:35;2.42;;;1.35;;
42754;SDS011;28407;51.830;5.684;2023-06-14T05:22:37;2.10;;;1.42;;
42754;SDS011;28407;51.830;5.684;2023-06-14T05:24:37;3.65;;;1.60;;
42754;SDS011;28407;51.830;5.684;2023-06-14T05:26:38;1.95;;;1.23;;
42754;SDS011;28407;51.830;5.684;2023-06-14T05:28:39;2.50;;;1.30;;
42754;SDS011;28407;51.830;5.684;2023-06-14T05:30:40;2.55;;;1.38;;
42754;SDS011;28407;51.830;5.684;2023-06-14T05:32:41;2.45;;;1.50;;
42754;SDS011;28407;51.830;5.684;2023-06-14T05:34:42;3.55;;;1.40;;
42754;SDS011;28407;51.830;5.684;2023-06-14T05:36:43;2.20;;;1.13;;
42754;SDS011;28407;51.830;5.684;2023-06-14T05:38:44;1.70;;;1.25;;
42754;SDS011;28407;51.830;5.684;2023-06-14T05:40:46;3.17;;;1.50;;
42754;SDS011;28407;51.830;5.684;2023-06-14T05:42:46;3.10;;;1.00;;
42754;SDS011;28407;51.830;5.684;2023-06-14T05:44:47;3.38;;;1.30;;
42754;SDS011;28407;51.830;5.684;2023-06-14T05:46:48;6.72;;;1.42;;
42754;SDS011;28407;51.830;5.684;2023-06-14T05:48:48;4.00;;;1.40;;
42754;SDS011;28407;51.830;5.684;2023-06-14T05:50:49;2.63;;;1.67;;
42754;SDS011;28407;51.830;5.684;2023-06-14T05:52:50;3.25;;;1.58;;
42754;SDS011;28407;51.830;5.684;2023-06-14T05:54:51;2.30;;;1.50;;
42754;SDS011;28407;51.830;5.684;2023-06-14T05:56:52;2.25;;;1.50;;
42754;SDS011;28407;51.830;5.684;2023-06-14T05:58:52;2.88;;;1.38;;
42754;SDS011;28407;51.830;5.684;2023-06-14T06:00:53;1.55;;;0.98;;
42754;SDS011;28407;51.830;5.684;2023-06-14T06:02:54;4.22;;;1.50;;
42754;SDS011;28407;51.830;5.684;2023-06-14T06:04:57;3.38;;;1.20;;
42754;SDS011;28407;51.830;5.684;2023-06-14T06:06:58;5.28;;;1.45;;
42754;SDS011;28407;51.830;5.684;2023-06-14T06:08:59;4.57;;;1.30;;
42754;SDS011;28407;51.830;5.684;2023-06-14T06:11:00;2.95;;;1.55;;
42754;SDS011;28407;51.830;5.684;2023-06-14T06:13:01;1.93;;;1.10;;
42754;SDS011;28407;51.830;5.684;2023-06-14T06:15:02;2.47;;;1.33;;
42754;SDS011;28407;51.830;5.684;2023-06-14T06:17:04;3.90;;;1.45;;
42754;SDS011;28407;51.830;5.684;2023-06-14T06:19:04;1.92;;;1.10;;
42754;SDS011;28407;51.830;5.684;2023-06-14T06:21:05;2.20;;;1.35;;
42754;SDS011;28407;51.830;5.684;2023-06-14T06:23:06;5.57;;;2.42;;
42754;SDS011;28407;51.830;5.684;2023-06-14T06:25:08;2.05;;;1.30;;
42754;SDS011;28407;51.830;5.684;2023-06-14T06:27:09;3.17;;;1.40;;
42754;SDS011;28407;51.830;5.684;2023-06-14T06:29:10;2.60;;;1.40;;
42754;SDS011;28407;51.830;5.684;2023-06-14T06:31:11;2.30;;;1.35;;
42754;SDS011;28407;51.830;5.684;2023-06-14T06:33:12;3.33;;;1.60;;
42754;SDS011;28407;51.830;5.684;2023-06-14T06:35:14;3.15;;;1.55;;
42754;SDS011;28407;51.830;5.684;2023-06-14T06:37:15;3.47;;;1.45;;
42754;SDS011;28407;51.830;5.684;2023-06-14T06:39:15;2.33;;;1.85;;
42754;SDS011;28407;51.830;5.684;2023-06-14T06:41:16;2.75;;;1.73;;
42754;SDS011;28407;51.830;5.684;2023-06-14T06:43:17;2.95;;;1.35;;
42754;SDS011;28407;51.830;5.684;2023-06-14T06:45:21;2.30;;;1.20;;
42754;SDS011;28407;51.830;5.684;2023-06-14T06:47:23;2.67;;;1.60;;
42754;SDS011;28407;51.830;5.684;2023-06-14T06:49:25;2.33;;;1.35;;
42754;SDS011;28407;51.830;5.684;2023-06-14T06:51:27;2.97;;;1.45;;
42754;SDS011;28407;51.830;5.684;2023-06-14T06:53:27;3.38;;;1.73;;
42754;SDS011;28407;51.830;5.684;2023-06-14T06:55:28;4.63;;;2.47;;
42754;SDS011;28407;51.830;5.684;2023-06-14T06:57:29;3.30;;;1.40;;
42754;SDS011;28407;51.830;5.684;2023-06-14T06:59:29;1.77;;;1.00;;
42754;SDS011;28407;51.830;5.684;2023-06-14T07:01:30;3.65;;;1.63;;
42754;SDS011;28407;51.830;5.684;2023-06-14T07:03:33;1.85;;;1.20;;
42754;SDS011;28407;51.830;5.684;2023-06-14T07:05:34;4.03;;;1.45;;
42754;SDS011;28407;51.830;5.684;2023-06-14T07:07:35;3.70;;;1.55;;
42754;SDS011;28407;51.830;5.684;2023-06-14T07:09:36;5.70;;;1.65;;
42754;SDS011;28407;51.830;5.684;2023-06-14T07:11:36;3.50;;;1.17;;
42754;SDS011;28407;51.830;5.684;2023-06-14T07:13:37;3.78;;;1.88;;
42754;SDS011;28407;51.830;5.684;2023-06-14T07:15:38;3.90;;;1.23;;
42754;SDS011;28407;51.830;5.684;2023-06-14T07:17:39;2.90;;;1.55;;
42754;SDS011;28407;51.830;5.684;2023-06-14T07:19:40;2.10;;;1.20;;
42754;SDS011;28407;51.830;5.684;2023-06-14T07:21:43;4.60;;;1.73;;
42754;SDS011;28407;51.830;5.684;2023-06-14T07:23:43;2.60;;;1.00;;
42754;SDS011;28407;51.830;5.684;2023-06-14T07:25:44;2.67;;;1.25;;
42754;SDS011;28407;51.830;5.684;2023-06-14T07:27:45;2.40;;;1.38;;
42754;SDS011;28407;51.830;5.684;2023-06-14T07:29:46;4.63;;;1.10;;
42754;SDS011;28407;51.830;5.684;2023-06-14T07:31:47;1.70;;;1.10;;
42754;SDS011;28407;51.830;5.684;2023-06-14T07:33:48;2.65;;;1.35;;
42754;SDS011;28407;51.830;5.684;2023-06-14T07:35:48;5.95;;;2.47;;
42754;SDS011;28407;51.830;5.684;2023-06-14T07:37:50;2.42;;;1.20;;
42754;SDS011;28407;51.830;5.684;2023-06-14T07:39:50;2.20;;;0.93;;
42754;SDS011;28407;51.830;5.684;2023-06-14T07:41:51;1.67;;;0.95;;
42754;SDS011;28407;51.830;5.684;2023-06-14T07:43:52;1.98;;;1.17;;
42754;SDS011;28407;51.830;5.684;2023-06-14T07:45:52;2.15;;;1.10;;
42754;SDS011;28407;51.830;5.684;2023-06-14T07:47:53;5.53;;;1.40;;
42754;SDS011;28407;51.830;5.684;2023-06-14T07:49:54;2.17;;;1.45;;
42754;SDS011;28407;51.830;5.684;2023-06-14T07:51:55;2.13;;;1.25;;
42754;SDS011;28407;51.830;5.684;2023-06-14T07:53:56;2.65;;;1.45;;
42754;SDS011;28407;51.830;5.684;2023-06-14T07:55:56;2.13;;;1.20;;
42754;SDS011;28407;51.830;5.684;2023-06-14T07:57:58;3.37;;;1.17;;
42754;SDS011;28407;51.830;5.684;2023-06-14T07:59:58;2.50;;;1.08;;
42754;SDS011;28407;51.830;5.684;2023-06-14T08:01:59;1.60;;;1.00;;
42754;SDS011;28407;51.830;5.684;2023-06-14T08:04:00;1.75;;;0.95;;
42754;SDS011;28407;51.830;5.684;2023-06-14T08:06:01;4.35;;;1.20;;
42754;SDS011;28407;51.830;5.684;2023-06-14T08:08:02;1.50;;;0.90;;
42754;SDS011;28407;51.830;5.684;2023-06-14T08:10:03;2.28;;;1.10;;
42754;SDS011;28407;51.830;5.684;2023-06-14T08:12:05;1.50;;;0.90;;
42754;SDS011;28407;51.830;5.684;2023-06-14T08:14:12;1.73;;;0.90;;
42754;SDS011;28407;51.830;5.684;2023-06-14T08:16:13;1.90;;;0.90;;
42754;SDS011;28407;51.830;5.684;2023-06-14T08:18:14;1.38;;;0.75;;
42754;SDS011;28407;51.830;5.684;2023-06-14T08:20:17;2.38;;;0.85;;
42754;SDS011;28407;51.830;5.684;2023-06-14T08:22:18;2.75;;;0.90;;
42754;SDS011;28407;51.830;5.684;2023-06-14T08:24:20;1.02;;;0.68;;
42754;SDS011;28407;51.830;5.684;2023-06-14T08:26:27;1.10;;;0.65;;
42754;SDS011;28407;51.830;5.684;2023-06-14T08:28:31;2.88;;;1.10;;
42754;SDS011;28407;51.830;5.684;2023-06-14T08:30:32;2.60;;;0.40;;
42754;SDS011;28407;51.830;5.684;2023-06-14T08:32:33;0.90;;;0.50;;
42754;SDS011;28407;51.830;5.684;2023-06-14T08:34:34;0.63;;;0.40;;
42754;SDS011;28407;51.830;5.684;2023-06-14T08:36:35;1.23;;;0.50;;
42754;SDS011;28407;51.830;5.684;2023-06-14T08:38:36;1.42;;;0.52;;
42754;SDS011;28407;51.830;5.684;2023-06-14T08:40:37;8.18;;;2.25;;
42754;SDS011;28407;51.830;5.684;2023-06-14T08:42:38;2.42;;;0.65;;
42754;SDS011;28407;51.830;5.684;2023-06-14T08:44:41;0.70;;;0.50;;
42754;SDS011;28407;51.830;5.684;2023-06-14T08:46:42;0.95;;;0.50;;
42754;SDS011;28407;51.830;5.684;2023-06-14T08:48:43;1.53;;;0.60;;
42754;SDS011;28407;51.830;5.684;2023-06-14T08:50:44;1.58;;;0.60;;
42754;SDS011;28407;51.830;5.684;2023-06-14T08:52:47;1.27;;;0.60;;
42754;SDS011;28407;51.830;5.684;2023-06-14T08:54:53;0.70;;;0.50;;
42754;SDS011;28407;51.830;5.684;2023-06-14T08:56:53;1.50;;;0.60;;
42754;SDS011;28407;51.830;5.684;2023-06-14T08:58:57;1.38;;;0.50;;
42754;SDS011;28407;51.830;5.684;2023-06-14T09:01:02;1.42;;;0.50;;
42754;SDS011;28407;51.830;5.684;2023-06-14T09:05:10;0.90;;;0.50;;
42754;SDS011;28407;51.830;5.684;2023-06-14T09:07:13;1.25;;;0.50;;
42754;SDS011;28407;51.830;5.684;2023-06-14T09:09:14;0.70;;;0.55;;
42754;SDS011;28407;51.830;5.684;2023-06-14T09:11:16;1.20;;;0.60;;
42754;SDS011;28407;51.830;5.684;2023-06-14T09:13:19;0.88;;;0.50;;
42754;SDS011;28407;51.830;5.684;2023-06-14T09:15:19;1.50;;;0.52;;
42754;SDS011;28407;51.830;5.684;2023-06-14T09:17:20;1.08;;;0.60;;
42754;SDS011;28407;51.830;5.684;2023-06-14T09:19:23;1.33;;;0.43;;
42754;SDS011;28407;51.830;5.684;2023-06-14T09:21:24;1.02;;;0.60;;
42754;SDS011;28407;51.830;5.684;2023-06-14T09:23:25;1.20;;;0.65;;
42754;SDS011;28407;51.830;5.684;2023-06-14T09:25:26;1.55;;;0.57;;
42754;SDS011;28407;51.830;5.684;2023-06-14T09:27:28;2.35;;;0.50;;
42754;SDS011;28407;51.830;5.684;2023-06-14T09:29:29;2.20;;;1.50;;
42754;SDS011;28407;51.830;5.684;2023-06-14T09:31:31;3.45;;;1.55;;
42754;SDS011;28407;51.830;5.684;2023-06-14T12:01:42;0.85;;;0.50;;
42754;SDS011;28407;51.830;5.684;2023-06-14T12:03:49;1.15;;;0.50;;
42754;SDS011;28407;51.830;5.684;2023-06-14T12:06:01;0.70;;;0.40;;
42754;SDS011;28407;51.830;5.684;2023-06-14T12:08:04;1.27;;;0.55;;
42754;SDS011;28407;51.830;5.684;2023-06-14T12:10:08;1.65;;;0.65;;
42754;SDS011;28407;51.830;5.684;2023-06-14T12:12:12;2.05;;;0.50;;
42754;SDS011;28407;51.830;5.684;2023-06-14T12:14:12;1.23;;;0.52;;
42754;SDS011;28407;51.830;5.684;2023-06-14T12:16:13;1.37;;;0.77;;
42754;SDS011;28407;51.830;5.684;2023-06-14T12:18:13;1.33;;;0.50;;
42754;SDS011;28407;51.830;5.684;2023-06-14T12:20:14;2.90;;;0.50;;
42754;SDS011;28407;51.830;5.684;2023-06-14T12:22:19;1.20;;;0.50;;
42754;SDS011;28407;51.830;5.684;2023-06-14T12:24:20;1.40;;;0.63;;
42754;SDS011;28407;51.830;5.684;2023-06-14T12:26:20;1.95;;;0.65;;
42754;SDS011;28407;51.830;5.684;2023-06-14T12:28:21;2.83;;;0.53;;
42754;SDS011;28407;51.830;5.684;2023-06-14T12:30:22;1.85;;;0.50;;
42754;SDS011;28407;51.830;5.684;2023-06-14T12:32:22;1.20;;;0.53;;
42754;SDS011;28407;51.830;5.684;2023-06-14T12:34:23;1.20;;;0.60;;
42754;SDS011;28407;51.830;5.684;2023-06-14T12:36:24;1.02;;;0.40;;
42754;SDS011;28407;51.830;5.684;2023-06-14T12:38:25;1.83;;;0.88;;
42754;SDS011;28407;51.830;5.684;2023-06-14T12:40:26;2.25;;;0.73;;
42754;SDS011;28407;51.830;5.684;2023-06-14T12:42:27;1.33;;;0.60;;
42754;SDS011;28407;51.830;5.684;2023-06-14T12:44:27;0.80;;;0.40;;
42754;SDS011;28407;51.830;5.684;2023-06-14T12:46:28;0.97;;;0.40;;
42754;SDS011;28407;51.830;5.684;2023-06-14T12:48:29;0.50;;;0.30;;
42754;SDS011;28407;51.830;5.684;2023-06-14T12:50:31;1.23;;;0.60;;
42754;SDS011;28407;51.830;5.684;2023-06-14T12:52:32;1.63;;;0.53;;
42754;SDS011;28407;51.830;5.684;2023-06-14T12:54:36;1.58;;;0.55;;
42754;SDS011;28407;51.830;5.684;2023-06-14T12:56:36;1.67;;;0.60;;
42754;SDS011;28407;51.830;5.684;2023-06-14T12:58:37;0.98;;;0.40;;
42754;SDS011;28407;51.830;5.684;2023-06-14T13:00:38;1.10;;;0.40;;
42754;SDS011;28407;51.830;5.684;2023-06-14T13:02:38;1.53;;;0.60;;
42754;SDS011;28407;51.830;5.684;2023-06-14T13:04:39;1.40;;;0.60;;
42754;SDS011;28407;51.830;5.684;2023-06-14T13:06:40;0.80;;;0.37;;
42754;SDS011;28407;51.830;5.684;2023-06-14T13:08:41;0.70;;;0.33;;
42754;SDS011;28407;51.830;5.684;2023-06-14T13:10:41;1.93;;;0.50;;
42754;SDS011;28407;51.830;5.684;2023-06-14T13:12:42;2.43;;;0.50;;
42754;SDS011;28407;51.830;5.684;2023-06-14T13:14:44;1.23;;;0.40;;
42754;SDS011;28407;51.830;5.684;2023-06-14T13:16:44;1.43;;;0.50;;
42754;SDS011;28407;51.830;5.684;2023-06-14T13:18:45;1.20;;;0.40;;
42754;SDS011;28407;51.830;5.684;2023-06-14T13:20:46;0.50;;;0.40;;
42754;SDS011;28407;51.830;5.684;2023-06-14T13:22:47;0.52;;;0.30;;
42754;SDS011;28407;51.830;5.684;2023-06-14T13:24:47;1.57;;;0.30;;
42754;SDS011;28407;51.830;5.684;2023-06-14T13:26:48;1.30;;;0.50;;
42754;SDS011;28407;51.830;5.684;2023-06-14T13:28:49;1.20;;;0.40;;
42754;SDS011;28407;51.830;5.684;2023-06-14T13:30:51;1.40;;;0.30;;
42754;SDS011;28407;51.830;5.684;2023-06-14T13:32:52;2.20;;;0.40;;
42754;SDS011;28407;51.830;5.684;2023-06-14T13:34:52;0.53;;;0.30;;
42754;SDS011;28407;51.830;5.684;2023-06-14T13:36:53;0.50;;;0.40;;
42754;SDS011;28407;51.830;5.684;2023-06-14T13:38:53;0.37;;;0.20;;
42754;SDS011;28407;51.830;5.684;2023-06-14T13:40:55;0.95;;;0.40;;
42754;SDS011;28407;51.830;5.684;2023-06-14T13:42:55;2.07;;;0.30;;
42754;SDS011;28407;51.830;5.684;2023-06-14T13:44:56;0.77;;;0.37;;
42754;SDS011;28407;51.830;5.684;2023-06-14T13:46:57;0.37;;;0.23;;
42754;SDS011;28407;51.830;5.684;2023-06-14T13:48:58;1.00;;;0.40;;
42754;SDS011;28407;51.830;5.684;2023-06-14T13:51:00;1.20;;;0.40;;
42754;SDS011;28407;51.830;5.684;2023-06-14T13:53:01;0.30;;;0.20;;
42754;SDS011;28407;51.830;5.684;2023-06-14T13:55:02;1.03;;;0.20;;
42754;SDS011;28407;51.830;5.684;2023-06-14T13:57:02;2.43;;;0.40;;
42754;SDS011;28407;51.830;5.684;2023-06-14T13:59:03;2.27;;;0.30;;
42754;SDS011;28407;51.830;5.684;2023-06-14T14:01:04;2.30;;;0.30;;
42754;SDS011;28407;51.830;5.684;2023-06-14T14:03:05;0.97;;;0.47;;
42754;SDS011;28407;51.830;5.684;2023-06-14T14:05:06;2.00;;;0.47;;
42754;SDS011;28407;51.830;5.684;2023-06-14T14:07:07;0.68;;;0.30;;
42754;SDS011;28407;51.830;5.684;2023-06-14T14:09:08;1.13;;;0.38;;
42754;SDS011;28407;51.830;5.684;2023-06-14T14:11:09;0.80;;;0.30;;
42754;SDS011;28407;51.830;5.684;2023-06-14T14:13:10;0.50;;;0.20;;
42754;SDS011;28407;51.830;5.684;2023-06-14T14:15:10;0.63;;;0.23;;
42754;SDS011;28407;51.830;5.684;2023-06-14T14:17:12;2.17;;;0.25;;
42754;SDS011;28407;51.830;5.684;2023-06-14T14:19:13;0.80;;;0.30;;
42754;SDS011;28407;51.830;5.684;2023-06-14T14:21:14;0.63;;;0.30;;
42754;SDS011;28407;51.830;5.684;2023-06-14T14:23:14;1.50;;;0.40;;
42754;SDS011;28407;51.830;5.684;2023-06-14T14:25:15;0.97;;;0.30;;
42754;SDS011;28407;51.830;5.684;2023-06-14T14:27:16;0.30;;;0.23;;
42754;SDS011;28407;51.830;5.684;2023-06-14T14:29:16;0.30;;;0.20;;
42754;SDS011;28407;51.830;5.684;2023-06-14T14:31:17;1.80;;;0.20;;
42754;SDS011;28407;51.830;5.684;2023-06-14T14:33:18;0.10;;;0.10;;
42754;SDS011;28407;51.830;5.684;2023-06-14T14:35:19;0.70;;;0.30;;
42754;SDS011;28407;51.830;5.684;2023-06-14T14:37:19;0.60;;;0.20;;
42754;SDS011;28407;51.830;5.684;2023-06-14T14:39:20;0.60;;;0.37;;
42754;SDS011;28407;51.830;5.684;2023-06-14T14:41:21;0.80;;;0.30;;
42754;SDS011;28407;51.830;5.684;2023-06-14T14:43:21;0.87;;;0.30;;
42754;SDS011;28407;51.830;5.684;2023-06-14T14:45:22;0.73;;;0.23;;
42754;SDS011;28407;51.830;5.684;2023-06-14T14:47:23;2.23;;;0.40;;
42754;SDS011;28407;51.830;5.684;2023-06-14T14:49:24;0.85;;;0.25;;
42754;SDS011;28407;51.830;5.684;2023-06-14T14:51:24;0.60;;;0.23;;
42754;SDS011;28407;51.830;5.684;2023-06-14T14:53:25;0.60;;;0.37;;
42754;SDS011;28407;51.830;5.684;2023-06-14T14:55:26;0.93;;;0.30;;